sensor_id;sensor_type;location;lat;lon;timestamp;temperature;humidity
22956;DHT22;40888;48.148;11.526;2023-05-07T00:00:20;14.60;99.90
22956;DHT22;40888;48.148;11.526;2023-05-07T00:02:46;14.50;99.90
22956;DHT22;40888;48.148;11.526;2023-05-07T00:05:13;14.40;99.90
22956;DHT22;40888;48.148;11.526;2023-05-07T00:07:39;14.30;99.90
22956;DHT22;40888;48.148;11.526;2023-05-07T00:10:06;14.50;99.90
22956;DHT22;40888;48.148;11.526;2023-05-07T00:12:32;14.60;99.90
22956;DHT22;40888;48.148;11.526;2023-05-07T00:15:04;14.60;99.90
22956;DHT22;40888;48.148;11.526;2023-05-07T00:17:32;14.60;99.90
22956;DHT22;40888;48.148;11.526;2023-05-07T00:19:58;14.70;99.90
22956;DHT22;40888;48.148;11.526;2023-05-07T00:22:25;14.20;99.90
22956;DHT22;40888;48.148;11.526;2023-05-07T00:24:50;14.20;99.90
22956;DHT22;40888;48.148;11.526;2023-05-07T00:27:16;14.40;99.90
22956;DHT22;40888;48.148;11.526;2023-05-07T00:29:42;14.30;99.90
22956;DHT22;40888;48.148;11.526;2023-05-07T00:32:08;14.40;99.90
22956;DHT22;40888;48.148;11.526;2023-05-07T00:34:34;14.40;99.90
22956;DHT22;40888;48.148;11.526;2023-05-07T00:37:01;14.50;99.90
22956;DHT22;40888;48.148;11.526;2023-05-07T00:39:27;14.40;99.90
22956;DHT22;40888;48.148;11.526;2023-05-07T00:41:52;14.10;99.90
22956;DHT22;40888;48.148;11.526;2023-05-07T00:44:18;14.00;99.90
22956;DHT22;40888;48.148;11.526;2023-05-07T00:46:44;14.00;99.90
22956;DHT22;40888;48.148;11.526;2023-05-07T00:49:10;14.00;99.90
22956;DHT22;40888;48.148;11.526;2023-05-07T00:51:37;14.30;99.90
22956;DHT22;40888;48.148;11.526;2023-05-07T00:54:03;14.40;99.90
22956;DHT22;40888;48.148;11.526;2023-05-07T00:56:28;14.20;99.90
22956;DHT22;40888;48.148;11.526;2023-05-07T00:58:55;14.30;99.90
22956;DHT22;40888;48.148;11.526;2023-05-07T01:01:20;14.30;99.90
22956;DHT22;40888;48.148;11.526;2023-05-07T01:03:46;14.30;99.90
22956;DHT22;40888;48.148;11.526;2023-05-07T01:06:12;14.40;99.90
22956;DHT22;40888;48.148;11.526;2023-05-07T01:08:39;14.50;99.90
22956;DHT22;40888;48.148;11.526;2023-05-07T01:11:07;14.30;99.90
22956;DHT22;40888;48.148;11.526;2023-05-07T01:13:34;14.30;99.90
22956;DHT22;40888;48.148;11.526;2023-05-07T01:16:00;14.40;99.90
22956;DHT22;40888;48.148;11.526;2023-05-07T01:18:26;14.50;99.90
22956;DHT22;40888;48.148;11.526;2023-05-07T01:20:52;14.50;99.90
22956;DHT22;40888;48.148;11.526;2023-05-07T01:23:18;14.50;99.90
22956;DHT22;40888;48.148;11.526;2023-05-07T01:25:54;14.50;99.90
22956;DHT22;40888;48.148;11.526;2023-05-07T01:28:20;14.50;99.90
22956;DHT22;40888;48.148;11.526;2023-05-07T01:30:52;14.40;99.90
22956;DHT22;40888;48.148;11.526;2023-05-07T01:33:21;14.30;99.90
22956;DHT22;40888;48.148;11.526;2023-05-07T01:35:50;14.30;99.90
22956;DHT22;40888;48.148;11.526;2023-05-07T01:38:17;14.30;99.90
22956;DHT22;40888;48.148;11.526;2023-05-07T01:40:43;14.20;99.90
22956;DHT22;40888;48.148;11.526;2023-05-07T01:43:09;14.20;99.90
22956;DHT22;40888;48.148;11.526;2023-05-07T01:45:36;14.10;99.90
22956;DHT22;40888;48.148;11.526;2023-05-07T01:48:02;14.10;99.90
22956;DHT22;40888;48.148;11.526;2023-05-07T01:50:29;14.20;99.90
22956;DHT22;40888;48.148;11.526;2023-05-07T01:52:55;14.20;99.90
22956;DHT22;40888;48.148;11.526;2023-05-07T01:55:21;14.20;99.90
22956;DHT22;40888;48.148;11.526;2023-05-07T01:57:47;14.20;99.90
22956;DHT22;40888;48.148;11.526;2023-05-07T02:00:13;14.30;99.90
22956;DHT22;40888;48.148;11.526;2023-05-07T02:02:38;14.30;99.90
22956;DHT22;40888;48.148;11.526;2023-05-07T02:05:05;14.20;99.90
22956;DHT22;40888;48.148;11.526;2023-05-07T02:07:30;13.90;99.90
22956;DHT22;40888;48.148;11.526;2023-05-07T02:09:56;13.60;99.90
22956;DHT22;40888;48.148;11.526;2023-05-07T02:12:22;13.60;99.90
22956;DHT22;40888;48.148;11.526;2023-05-07T02:14:49;13.60;99.90
22956;DHT22;40888;48.148;11.526;2023-05-07T02:17:14;13.60;99.90
22956;DHT22;40888;48.148;11.526;2023-05-07T02:19:40;13.80;99.90
22956;DHT22;40888;48.148;11.526;2023-05-07T02:22:07;13.60;99.90
22956;DHT22;40888;48.148;11.526;2023-05-07T02:24:32;13.80;99.90
22956;DHT22;40888;48.148;11.526;2023-05-07T02:26:58;13.80;99.90
22956;DHT22;40888;48.148;11.526;2023-05-07T02:29:24;13.70;99.90
22956;DHT22;40888;48.148;11.526;2023-05-07T02:31:49;13.80;99.90
22956;DHT22;40888;48.148;11.526;2023-05-07T02:34:19;13.80;99.90
22956;DHT22;40888;48.148;11.526;2023-05-07T02:36:45;13.70;99.90
22956;DHT22;40888;48.148;11.526;2023-05-07T02:39:12;13.80;99.90
22956;DHT22;40888;48.148;11.526;2023-05-07T02:41:38;13.70;99.90
22956;DHT22;40888;48.148;11.526;2023-05-07T02:44:04;13.70;99.90
22956;DHT22;40888;48.148;11.526;2023-05-07T02:46:29;13.80;99.90
22956;DHT22;40888;48.148;11.526;2023-05-07T02:48:55;13.70;99.90
22956;DHT22;40888;48.148;11.526;2023-05-07T02:51:22;13.70;99.90
22956;DHT22;40888;48.148;11.526;2023-05-07T02:53:48;13.60;99.90
22956;DHT22;40888;48.148;11.526;2023-05-07T02:56:14;13.40;99.90
22956;DHT22;40888;48.148;11.526;2023-05-07T02:58:39;13.50;99.90
22956;DHT22;40888;48.148;11.526;2023-05-07T03:01:06;13.50;99.90
22956;DHT22;40888;48.148;11.526;2023-05-07T03:03:32;13.50;99.90
22956;DHT22;40888;48.148;11.526;2023-05-07T03:05:57;13.50;99.90
22956;DHT22;40888;48.148;11.526;2023-05-07T03:08:24;13.60;99.90
22956;DHT22;40888;48.148;11.526;2023-05-07T03:10:50;13.30;99.90
22956;DHT22;40888;48.148;11.526;2023-05-07T03:13:16;13.30;99.90
22956;DHT22;40888;48.148;11.526;2023-05-07T03:15:42;13.30;99.90
22956;DHT22;40888;48.148;11.526;2023-05-07T03:18:08;13.30;99.90
22956;DHT22;40888;48.148;11.526;2023-05-07T03:20:34;13.30;99.90
22956;DHT22;40888;48.148;11.526;2023-05-07T03:23:00;13.40;99.90
22956;DHT22;40888;48.148;11.526;2023-05-07T03:25:25;13.40;99.90
22956;DHT22;40888;48.148;11.526;2023-05-07T03:27:51;13.30;99.90
22956;DHT22;40888;48.148;11.526;2023-05-07T03:30:17;13.40;99.90
22956;DHT22;40888;48.148;11.526;2023-05-07T03:32:43;13.30;99.90
22956;DHT22;40888;48.148;11.526;2023-05-07T03:35:08;13.30;99.90
22956;DHT22;40888;48.148;11.526;2023-05-07T03:37:34;13.30;99.90
22956;DHT22;40888;48.148;11.526;2023-05-07T03:40:00;13.30;99.90
22956;DHT22;40888;48.148;11.526;2023-05-07T03:42:26;13.30;99.90
22956;DHT22;40888;48.148;11.526;2023-05-07T03:44:51;13.20;99.90
22956;DHT22;40888;48.148;11.526;2023-05-07T03:47:17;13.20;99.90
22956;DHT22;40888;48.148;11.526;2023-05-07T03:49:43;13.30;99.90
22956;DHT22;40888;48.148;11.526;2023-05-07T03:52:08;13.40;99.90
22956;DHT22;40888;48.148;11.526;2023-05-07T03:54:34;13.40;99.90
22956;DHT22;40888;48.148;11.526;2023-05-07T03:57:00;13.30;99.90
22956;DHT22;40888;48.148;11.526;2023-05-07T03:59:26;13.30;99.90
22956;DHT22;40888;48.148;11.526;2023-05-07T04:01:51;13.40;99.90
22956;DHT22;40888;48.148;11.526;2023-05-07T04:04:17;13.40;99.90
22956;DHT22;40888;48.148;11.526;2023-05-07T04:06:43;13.50;99.90
22956;DHT22;40888;48.148;11.526;2023-05-07T04:09:09;13.10;99.90
22956;DHT22;40888;48.148;11.526;2023-05-07T04:11:35;13.20;99.90
22956;DHT22;40888;48.148;11.526;2023-05-07T04:14:01;13.20;99.90
22956;DHT22;40888;48.148;11.526;2023-05-07T04:16:27;13.10;99.90
22956;DHT22;40888;48.148;11.526;2023-05-07T04:18:52;13.10;99.90
22956;DHT22;40888;48.148;11.526;2023-05-07T04:21:20;13.00;99.90
22956;DHT22;40888;48.148;11.526;2023-05-07T04:23:47;12.90;99.90
22956;DHT22;40888;48.148;11.526;2023-05-07T04:26:13;12.90;99.90
22956;DHT22;40888;48.148;11.526;2023-05-07T04:28:39;12.80;99.90
22956;DHT22;40888;48.148;11.526;2023-05-07T04:31:06;13.00;99.90
22956;DHT22;40888;48.148;11.526;2023-05-07T04:33:32;12.80;99.90
22956;DHT22;40888;48.148;11.526;2023-05-07T04:36:01;12.90;99.90
22956;DHT22;40888;48.148;11.526;2023-05-07T04:38:31;12.80;99.90
22956;DHT22;40888;48.148;11.526;2023-05-07T04:41:02;13.10;99.90
22956;DHT22;40888;48.148;11.526;2023-05-07T04:43:27;13.20;99.90
22956;DHT22;40888;48.148;11.526;2023-05-07T04:45:53;13.20;99.90
22956;DHT22;40888;48.148;11.526;2023-05-07T04:48:19;13.20;99.90
22956;DHT22;40888;48.148;11.526;2023-05-07T04:50:49;13.00;99.90
22956;DHT22;40888;48.148;11.526;2023-05-07T04:53:16;13.30;99.90
22956;DHT22;40888;48.148;11.526;2023-05-07T04:55:43;13.40;99.90
22956;DHT22;40888;48.148;11.526;2023-05-07T04:58:09;13.40;99.90
22956;DHT22;40888;48.148;11.526;2023-05-07T05:00:35;13.40;99.90
22956;DHT22;40888;48.148;11.526;2023-05-07T05:03:00;13.40;99.90
22956;DHT22;40888;48.148;11.526;2023-05-07T05:05:26;13.10;99.90
22956;DHT22;40888;48.148;11.526;2023-05-07T05:07:52;13.10;99.90
22956;DHT22;40888;48.148;11.526;2023-05-07T05:10:18;13.00;99.90
22956;DHT22;40888;48.148;11.526;2023-05-07T05:12:44;13.00;99.90
22956;DHT22;40888;48.148;11.526;2023-05-07T05:15:12;13.20;99.90
22956;DHT22;40888;48.148;11.526;2023-05-07T05:17:38;13.30;99.90
22956;DHT22;40888;48.148;11.526;2023-05-07T05:20:05;13.40;99.90
22956;DHT22;40888;48.148;11.526;2023-05-07T05:22:32;13.20;99.90
22956;DHT22;40888;48.148;11.526;2023-05-07T05:24:59;13.30;99.90
22956;DHT22;40888;48.148;11.526;2023-05-07T05:27:26;13.30;99.90
22956;DHT22;40888;48.148;11.526;2023-05-07T05:29:51;13.30;99.90
22956;DHT22;40888;48.148;11.526;2023-05-07T05:32:17;13.20;99.90
22956;DHT22;40888;48.148;11.526;2023-05-07T05:34:43;13.40;99.90
22956;DHT22;40888;48.148;11.526;2023-05-07T05:37:09;13.50;99.90
22956;DHT22;40888;48.148;11.526;2023-05-07T05:39:35;13.50;99.90
22956;DHT22;40888;48.148;11.526;2023-05-07T05:42:01;13.50;99.90
22956;DHT22;40888;48.148;11.526;2023-05-07T05:44:26;13.50;99.90
22956;DHT22;40888;48.148;11.526;2023-05-07T05:46:52;13.50;99.90
22956;DHT22;40888;48.148;11.526;2023-05-07T05:49:21;13.60;99.90
22956;DHT22;40888;48.148;11.526;2023-05-07T05:51:47;13.60;99.90
22956;DHT22;40888;48.148;11.526;2023-05-07T05:54:13;13.90;99.90
22956;DHT22;40888;48.148;11.526;2023-05-07T05:56:38;13.80;99.90
22956;DHT22;40888;48.148;11.526;2023-05-07T05:59:05;13.90;99.90
22956;DHT22;40888;48.148;11.526;2023-05-07T06:01:31;13.90;99.90
22956;DHT22;40888;48.148;11.526;2023-05-07T06:03:57;14.00;99.90
22956;DHT22;40888;48.148;11.526;2023-05-07T06:06:23;13.80;99.90
22956;DHT22;40888;48.148;11.526;2023-05-07T06:08:49;13.90;99.90
22956;DHT22;40888;48.148;11.526;2023-05-07T06:11:14;13.60;99.90
22956;DHT22;40888;48.148;11.526;2023-05-07T06:13:40;13.40;99.90
22956;DHT22;40888;48.148;11.526;2023-05-07T06:16:06;13.70;99.90
22956;DHT22;40888;48.148;11.526;2023-05-07T06:18:32;13.70;99.90
22956;DHT22;40888;48.148;11.526;2023-05-07T06:20:59;13.90;99.90
22956;DHT22;40888;48.148;11.526;2023-05-07T06:23:25;14.00;99.90
22956;DHT22;40888;48.148;11.526;2023-05-07T06:25:51;14.20;99.90
22956;DHT22;40888;48.148;11.526;2023-05-07T06:28:21;14.50;99.90
22956;DHT22;40888;48.148;11.526;2023-05-07T06:30:48;14.50;99.90
22956;DHT22;40888;48.148;11.526;2023-05-07T06:33:17;14.70;99.90
22956;DHT22;40888;48.148;11.526;2023-05-07T06:35:44;15.00;99.90
22956;DHT22;40888;48.148;11.526;2023-05-07T06:38:09;14.80;99.90
22956;DHT22;40888;48.148;11.526;2023-05-07T06:40:36;14.80;99.90
22956;DHT22;40888;48.148;11.526;2023-05-07T06:43:01;14.90;99.90
22956;DHT22;40888;48.148;11.526;2023-05-07T06:45:27;15.00;99.90
22956;DHT22;40888;48.148;11.526;2023-05-07T06:47:53;15.50;99.90
22956;DHT22;40888;48.148;11.526;2023-05-07T06:50:19;14.80;99.90
22956;DHT22;40888;48.148;11.526;2023-05-07T06:52:45;15.00;99.90
22956;DHT22;40888;48.148;11.526;2023-05-07T06:55:11;14.90;99.90
22956;DHT22;40888;48.148;11.526;2023-05-07T06:57:37;14.80;99.90
22956;DHT22;40888;48.148;11.526;2023-05-07T07:00:04;15.10;99.90
22956;DHT22;40888;48.148;11.526;2023-05-07T07:02:34;15.20;99.90
22956;DHT22;40888;48.148;11.526;2023-05-07T07:05:04;15.40;99.90
22956;DHT22;40888;48.148;11.526;2023-05-07T07:07:33;15.70;99.90
22956;DHT22;40888;48.148;11.526;2023-05-07T07:10:13;15.70;99.90
22956;DHT22;40888;48.148;11.526;2023-05-07T07:12:40;15.60;99.90
22956;DHT22;40888;48.148;11.526;2023-05-07T07:15:19;15.90;99.90
22956;DHT22;40888;48.148;11.526;2023-05-07T07:17:46;16.10;99.90
22956;DHT22;40888;48.148;11.526;2023-05-07T07:20:12;16.50;99.90
22956;DHT22;40888;48.148;11.526;2023-05-07T07:22:38;16.60;99.90
22956;DHT22;40888;48.148;11.526;2023-05-07T07:25:04;16.60;99.90
22956;DHT22;40888;48.148;11.526;2023-05-07T07:27:30;16.80;99.90
22956;DHT22;40888;48.148;11.526;2023-05-07T07:29:55;16.70;99.90
22956;DHT22;40888;48.148;11.526;2023-05-07T07:32:30;16.70;99.90
22956;DHT22;40888;48.148;11.526;2023-05-07T07:35:01;16.30;99.90
22956;DHT22;40888;48.148;11.526;2023-05-07T07:37:27;16.50;99.90
22956;DHT22;40888;48.148;11.526;2023-05-07T07:39:53;16.30;99.90
22956;DHT22;40888;48.148;11.526;2023-05-07T07:42:19;16.30;99.90
22956;DHT22;40888;48.148;11.526;2023-05-07T07:44:44;16.60;99.90
22956;DHT22;40888;48.148;11.526;2023-05-07T07:47:10;16.60;99.90
22956;DHT22;40888;48.148;11.526;2023-05-07T07:49:38;16.80;99.90
22956;DHT22;40888;48.148;11.526;2023-05-07T07:52:04;17.30;99.90
22956;DHT22;40888;48.148;11.526;2023-05-07T07:54:29;17.40;99.90
22956;DHT22;40888;48.148;11.526;2023-05-07T07:56:55;17.50;99.90
22956;DHT22;40888;48.148;11.526;2023-05-07T07:59:21;17.30;99.90
22956;DHT22;40888;48.148;11.526;2023-05-07T08:01:47;17.60;99.90
22956;DHT22;40888;48.148;11.526;2023-05-07T08:04:15;17.50;99.90
22956;DHT22;40888;48.148;11.526;2023-05-07T08:06:42;17.50;99.90
22956;DHT22;40888;48.148;11.526;2023-05-07T08:09:08;17.60;99.90
22956;DHT22;40888;48.148;11.526;2023-05-07T08:11:34;17.90;99.90
22956;DHT22;40888;48.148;11.526;2023-05-07T08:14:00;17.60;99.90
22956;DHT22;40888;48.148;11.526;2023-05-07T08:16:27;18.00;99.90
22956;DHT22;40888;48.148;11.526;2023-05-07T08:18:55;18.30;99.90
22956;DHT22;40888;48.148;11.526;2023-05-07T08:21:22;17.70;99.90
22956;DHT22;40888;48.148;11.526;2023-05-07T08:23:48;17.50;99.90
22956;DHT22;40888;48.148;11.526;2023-05-07T08:26:14;18.20;99.90
22956;DHT22;40888;48.148;11.526;2023-05-07T08:28:40;18.60;99.90
22956;DHT22;40888;48.148;11.526;2023-05-07T08:31:07;18.50;99.90
22956;DHT22;40888;48.148;11.526;2023-05-07T08:33:40;17.50;99.90
22956;DHT22;40888;48.148;11.526;2023-05-07T08:36:05;17.50;99.90
22956;DHT22;40888;48.148;11.526;2023-05-07T08:38:33;17.60;99.90
22956;DHT22;40888;48.148;11.526;2023-05-07T08:41:00;18.20;99.90
22956;DHT22;40888;48.148;11.526;2023-05-07T08:43:31;18.70;99.90
22956;DHT22;40888;48.148;11.526;2023-05-07T08:46:01;18.70;99.90
22956;DHT22;40888;48.148;11.526;2023-05-07T08:48:29;18.80;99.90
22956;DHT22;40888;48.148;11.526;2023-05-07T08:50:57;18.60;99.90
22956;DHT22;40888;48.148;11.526;2023-05-07T08:53:23;18.30;99.90
22956;DHT22;40888;48.148;11.526;2023-05-07T08:55:49;18.50;99.90
22956;DHT22;40888;48.148;11.526;2023-05-07T08:58:21;18.30;99.90
22956;DHT22;40888;48.148;11.526;2023-05-07T09:00:47;18.50;99.90
22956;DHT22;40888;48.148;11.526;2023-05-07T09:03:13;18.30;99.90
22956;DHT22;40888;48.148;11.526;2023-05-07T09:05:39;19.00;99.90
22956;DHT22;40888;48.148;11.526;2023-05-07T09:08:07;19.00;99.90
22956;DHT22;40888;48.148;11.526;2023-05-07T09:10:33;18.70;99.90
22956;DHT22;40888;48.148;11.526;2023-05-07T09:12:59;19.00;99.90
22956;DHT22;40888;48.148;11.526;2023-05-07T09:15:26;18.30;99.90
22956;DHT22;40888;48.148;11.526;2023-05-07T09:17:52;18.50;99.90
22956;DHT22;40888;48.148;11.526;2023-05-07T09:20:18;18.10;99.90
22956;DHT22;40888;48.148;11.526;2023-05-07T09:22:43;18.10;99.90
22956;DHT22;40888;48.148;11.526;2023-05-07T09:25:10;17.70;99.90
22956;DHT22;40888;48.148;11.526;2023-05-07T09:27:37;18.60;99.90
22956;DHT22;40888;48.148;11.526;2023-05-07T09:30:06;19.10;99.90
22956;DHT22;40888;48.148;11.526;2023-05-07T09:32:36;18.80;99.90
22956;DHT22;40888;48.148;11.526;2023-05-07T09:35:05;18.20;99.90
22956;DHT22;40888;48.148;11.526;2023-05-07T09:37:31;19.30;99.90
22956;DHT22;40888;48.148;11.526;2023-05-07T09:39:58;19.80;99.90
22956;DHT22;40888;48.148;11.526;2023-05-07T09:42:24;20.30;99.90
22956;DHT22;40888;48.148;11.526;2023-05-07T09:44:52;19.80;99.90
22956;DHT22;40888;48.148;11.526;2023-05-07T09:47:23;19.60;99.90
22956;DHT22;40888;48.148;11.526;2023-05-07T09:49:50;19.10;99.90
22956;DHT22;40888;48.148;11.526;2023-05-07T09:52:17;19.00;99.90
22956;DHT22;40888;48.148;11.526;2023-05-07T09:54:43;18.90;99.90
22956;DHT22;40888;48.148;11.526;2023-05-07T09:57:11;19.20;99.90
22956;DHT22;40888;48.148;11.526;2023-05-07T09:59:38;19.20;99.90
22956;DHT22;40888;48.148;11.526;2023-05-07T10:02:26;19.30;99.90
22956;DHT22;40888;48.148;11.526;2023-05-07T10:04:54;19.50;99.90
22956;DHT22;40888;48.148;11.526;2023-05-07T10:07:20;19.30;99.90
22956;DHT22;40888;48.148;11.526;2023-05-07T10:09:46;19.70;99.90
22956;DHT22;40888;48.148;11.526;2023-05-07T10:12:13;18.90;99.90
22956;DHT22;40888;48.148;11.526;2023-05-07T10:14:39;18.60;99.90
22956;DHT22;40888;48.148;11.526;2023-05-07T10:17:05;19.50;99.90
22956;DHT22;40888;48.148;11.526;2023-05-07T10:19:32;19.70;99.90
22956;DHT22;40888;48.148;11.526;2023-05-07T10:22:09;19.10;99.90
22956;DHT22;40888;48.148;11.526;2023-05-07T10:24:37;20.00;99.90
22956;DHT22;40888;48.148;11.526;2023-05-07T10:27:11;20.50;99.90
22956;DHT22;40888;48.148;11.526;2023-05-07T10:32:45;19.30;99.90
22956;DHT22;40888;48.148;11.526;2023-05-07T10:35:23;19.40;99.90
22956;DHT22;40888;48.148;11.526;2023-05-07T10:37:59;19.10;99.90
22956;DHT22;40888;48.148;11.526;2023-05-07T10:40:26;18.80;99.90
22956;DHT22;40888;48.148;11.526;2023-05-07T10:43:00;19.50;99.90
22956;DHT22;40888;48.148;11.526;2023-05-07T10:45:26;19.00;99.90
22956;DHT22;40888;48.148;11.526;2023-05-07T10:48:15;18.60;99.90
22956;DHT22;40888;48.148;11.526;2023-05-07T10:50:44;19.00;99.90
22956;DHT22;40888;48.148;11.526;2023-05-07T10:56:07;19.00;99.90
22956;DHT22;40888;48.148;11.526;2023-05-07T10:58:37;19.70;99.90
22956;DHT22;40888;48.148;11.526;2023-05-07T11:01:03;20.00;99.90
22956;DHT22;40888;48.148;11.526;2023-05-07T11:03:29;19.50;99.90
22956;DHT22;40888;48.148;11.526;2023-05-07T11:06:11;19.90;99.90
22956;DHT22;40888;48.148;11.526;2023-05-07T11:08:53;19.30;99.90
22956;DHT22;40888;48.148;11.526;2023-05-07T11:11:21;19.20;99.90
22956;DHT22;40888;48.148;11.526;2023-05-07T11:14:06;18.90;99.90
22956;DHT22;40888;48.148;11.526;2023-05-07T11:16:32;19.00;99.90
22956;DHT22;40888;48.148;11.526;2023-05-07T11:18:59;20.60;99.90
22956;DHT22;40888;48.148;11.526;2023-05-07T11:21:37;20.70;99.90
22956;DHT22;40888;48.148;11.526;2023-05-07T11:24:13;20.60;99.90
22956;DHT22;40888;48.148;11.526;2023-05-07T11:26:49;20.50;99.90
22956;DHT22;40888;48.148;11.526;2023-05-07T11:29:21;19.80;99.90
22956;DHT22;40888;48.148;11.526;2023-05-07T11:31:52;19.30;99.90
22956;DHT22;40888;48.148;11.526;2023-05-07T11:34:22;19.50;99.90
22956;DHT22;40888;48.148;11.526;2023-05-07T11:36:49;19.50;99.90
22956;DHT22;40888;48.148;11.526;2023-05-07T11:39:30;19.70;99.90
22956;DHT22;40888;48.148;11.526;2023-05-07T11:41:57;20.10;99.90
22956;DHT22;40888;48.148;11.526;2023-05-07T11:44:23;20.10;99.90
22956;DHT22;40888;48.148;11.526;2023-05-07T11:46:49;20.00;99.90
22956;DHT22;40888;48.148;11.526;2023-05-07T11:49:15;20.00;99.90
22956;DHT22;40888;48.148;11.526;2023-05-07T11:51:41;20.30;99.90
22956;DHT22;40888;48.148;11.526;2023-05-07T11:54:09;21.50;99.90
22956;DHT22;40888;48.148;11.526;2023-05-07T11:56:37;20.30;99.90
22956;DHT22;40888;48.148;11.526;2023-05-07T11:59:03;20.00;99.90
22956;DHT22;40888;48.148;11.526;2023-05-07T12:01:29;20.80;99.90
22956;DHT22;40888;48.148;11.526;2023-05-07T12:03:54;21.10;99.90
22956;DHT22;40888;48.148;11.526;2023-05-07T12:06:20;20.50;99.90
22956;DHT22;40888;48.148;11.526;2023-05-07T12:08:46;20.40;99.90
22956;DHT22;40888;48.148;11.526;2023-05-07T12:11:21;20.70;99.90
22956;DHT22;40888;48.148;11.526;2023-05-07T12:13:51;20.70;99.90
22956;DHT22;40888;48.148;11.526;2023-05-07T12:16:19;20.70;99.90
22956;DHT22;40888;48.148;11.526;2023-05-07T12:18:45;20.50;99.90
22956;DHT22;40888;48.148;11.526;2023-05-07T12:21:12;20.10;99.90
22956;DHT22;40888;48.148;11.526;2023-05-07T12:23:39;20.10;99.90
22956;DHT22;40888;48.148;11.526;2023-05-07T12:26:05;20.10;99.90
22956;DHT22;40888;48.148;11.526;2023-05-07T12:28:36;20.10;99.90
22956;DHT22;40888;48.148;11.526;2023-05-07T12:31:03;20.80;99.90
22956;DHT22;40888;48.148;11.526;2023-05-07T12:33:29;20.20;99.90
22956;DHT22;40888;48.148;11.526;2023-05-07T12:35:56;22.00;79.50
22956;DHT22;40888;48.148;11.526;2023-05-07T12:38:22;22.90;70.80
22956;DHT22;40888;48.148;11.526;2023-05-07T12:40:49;22.10;99.90
22956;DHT22;40888;48.148;11.526;2023-05-07T12:43:25;22.60;99.90
22956;DHT22;40888;48.148;11.526;2023-05-07T12:45:54;23.10;66.80
22956;DHT22;40888;48.148;11.526;2023-05-07T12:48:20;23.00;79.60
22956;DHT22;40888;48.148;11.526;2023-05-07T12:50:50;21.50;99.90
22956;DHT22;40888;48.148;11.526;2023-05-07T12:53:21;22.30;79.10
22956;DHT22;40888;48.148;11.526;2023-05-07T12:55:49;21.10;99.90
22956;DHT22;40888;48.148;11.526;2023-05-07T12:58:35;22.60;70.50
22956;DHT22;40888;48.148;11.526;2023-05-07T13:01:06;22.80;63.10
22956;DHT22;40888;48.148;11.526;2023-05-07T13:03:34;23.00;58.70
22956;DHT22;40888;48.148;11.526;2023-05-07T13:06:03;23.20;57.20
22956;DHT22;40888;48.148;11.526;2023-05-07T13:08:32;23.00;62.20
22956;DHT22;40888;48.148;11.526;2023-05-07T13:11:00;22.80;62.50
22956;DHT22;40888;48.148;11.526;2023-05-07T13:13:30;22.50;77.70
22956;DHT22;40888;48.148;11.526;2023-05-07T13:15:56;22.50;69.70
22956;DHT22;40888;48.148;11.526;2023-05-07T13:18:25;22.70;76.90
22956;DHT22;40888;48.148;11.526;2023-05-07T13:20:51;22.90;57.20
22956;DHT22;40888;48.148;11.526;2023-05-07T13:23:17;23.10;56.40
22956;DHT22;40888;48.148;11.526;2023-05-07T13:25:43;22.40;66.60
22956;DHT22;40888;48.148;11.526;2023-05-07T13:28:09;22.50;65.20
22956;DHT22;40888;48.148;11.526;2023-05-07T13:30:34;21.20;99.90
22956;DHT22;40888;48.148;11.526;2023-05-07T13:33:00;20.90;99.90
22956;DHT22;40888;48.148;11.526;2023-05-07T13:35:26;21.20;99.90
22956;DHT22;40888;48.148;11.526;2023-05-07T13:37:52;20.40;99.90
22956;DHT22;40888;48.148;11.526;2023-05-07T13:40:20;22.10;74.20
22956;DHT22;40888;48.148;11.526;2023-05-07T13:42:46;22.00;99.90
22956;DHT22;40888;48.148;11.526;2023-05-07T13:45:12;22.80;67.50
22956;DHT22;40888;48.148;11.526;2023-05-07T13:47:42;23.40;61.80
22956;DHT22;40888;48.148;11.526;2023-05-07T13:50:09;23.80;56.20
22956;DHT22;40888;48.148;11.526;2023-05-07T13:52:35;23.90;54.80
22956;DHT22;40888;48.148;11.526;2023-05-07T13:55:01;23.50;76.70
22956;DHT22;40888;48.148;11.526;2023-05-07T13:57:26;23.60;54.20
22956;DHT22;40888;48.148;11.526;2023-05-07T13:59:52;22.90;99.90
22956;DHT22;40888;48.148;11.526;2023-05-07T14:02:18;22.70;99.90
22956;DHT22;40888;48.148;11.526;2023-05-07T14:04:43;22.90;72.90
22956;DHT22;40888;48.148;11.526;2023-05-07T14:07:10;23.60;57.20
22956;DHT22;40888;48.148;11.526;2023-05-07T14:09:36;23.70;58.90
22956;DHT22;40888;48.148;11.526;2023-05-07T14:12:02;23.70;56.90
22956;DHT22;40888;48.148;11.526;2023-05-07T14:14:27;23.60;74.40
22956;DHT22;40888;48.148;11.526;2023-05-07T14:16:53;22.90;99.10
22956;DHT22;40888;48.148;11.526;2023-05-07T14:19:19;23.20;69.20
22956;DHT22;40888;48.148;11.526;2023-05-07T14:21:45;21.60;97.30
22956;DHT22;40888;48.148;11.526;2023-05-07T14:24:10;21.40;90.30
22956;DHT22;40888;48.148;11.526;2023-05-07T14:26:36;22.10;99.90
22956;DHT22;40888;48.148;11.526;2023-05-07T14:29:03;22.40;66.60
22956;DHT22;40888;48.148;11.526;2023-05-07T14:31:28;21.90;99.90
22956;DHT22;40888;48.148;11.526;2023-05-07T14:33:54;20.60;99.90
22956;DHT22;40888;48.148;11.526;2023-05-07T14:36:20;20.50;99.90
22956;DHT22;40888;48.148;11.526;2023-05-07T14:38:47;20.90;99.90
22956;DHT22;40888;48.148;11.526;2023-05-07T14:41:13;20.60;99.90
22956;DHT22;40888;48.148;11.526;2023-05-07T14:43:38;20.20;99.90
22956;DHT22;40888;48.148;11.526;2023-05-07T14:46:04;21.30;99.90
22956;DHT22;40888;48.148;11.526;2023-05-07T14:48:30;20.80;99.90
22956;DHT22;40888;48.148;11.526;2023-05-07T14:50:55;21.10;99.90
22956;DHT22;40888;48.148;11.526;2023-05-07T14:53:22;21.10;97.80
22956;DHT22;40888;48.148;11.526;2023-05-07T14:55:48;20.50;99.90
22956;DHT22;40888;48.148;11.526;2023-05-07T14:58:14;20.50;99.90
22956;DHT22;40888;48.148;11.526;2023-05-07T15:00:40;21.00;99.90
22956;DHT22;40888;48.148;11.526;2023-05-07T15:03:10;20.20;99.90
22956;DHT22;40888;48.148;11.526;2023-05-07T15:05:36;19.70;99.90
22956;DHT22;40888;48.148;11.526;2023-05-07T15:08:02;19.90;99.90
22956;DHT22;40888;48.148;11.526;2023-05-07T15:10:28;20.30;99.90
22956;DHT22;40888;48.148;11.526;2023-05-07T15:12:54;20.70;99.90
22956;DHT22;40888;48.148;11.526;2023-05-07T15:15:19;21.00;99.90
22956;DHT22;40888;48.148;11.526;2023-05-07T15:17:45;20.90;95.00
22956;DHT22;40888;48.148;11.526;2023-05-07T15:20:11;21.10;95.30